Tiempo atmosférico en la estación meteorológica de Barcelona, Barcelona (25 m.)



Fecha
DESCASC
Temp. máxima en grados centígrados (hora)
DESCASC
Temp. mínima en grados centígrados (hora)
DESCASC
Temp. media en grados centígrados
DESCASC
Racha de viento máxima en m/sg (hora)
DESCASC
Velocidad máxima media en intervalos de 10 minutos(hora)
DESCASC
Precipitaciones diarias en mm
DESCASC
Precipitaciones de 00:00 a 06:00 en mm
DESCASC
Precipitaciones de 06:00 a 12:00 en mm
DESCASC
Precipitaciones de 12:00 a 18:00 en mm
DESCASC
Precipitaciones de 18:00 a 24:00 en mm
DESCASC
23-05-2018 21.4 (10:20) 15.6 (06:30) 18.5 9.72 (16:40) 7.5 (16:30) 0 0 0 0 0
22-05-2018 21.9 (13:50) 16.8 (07:00) 19.3 5.56 (17:10) 4.72 (17:00) 0 0 0 0 0
21-05-2018 21.7 (16:00) 15.6 (05:50) 18.7 6.11 (13:20) 4.17 (13:30) 0 0 0 0 0
20-05-2018 22.7 (11:50) 16 (00:00) 19.4 6.94 (13:40) 6.11 (13:40) 0 0 0 0 0
19-05-2018 24.2 (11:00) 15.3 (00:00) 19.8 5.28 (16:00) 3.89 (16:00) 0 0 0 0 0
18-05-2018 21.2 (13:30) 16.6 (00:00) 18.9 5.28 (03:40) 4.17 (03:50) 0 0 0 0 0
17-05-2018 21.3 (10:20) 15.7 (00:00) 18.5 7.22 (13:30) 5.28 (13:00) 0 0 0 0 0
16-05-2018 20.4 (10:40) 13.2 (00:00) 16.8 5.56 (10:50) 3.89 (10:50) 0 0 0 0 0
15-05-2018 21.2 (13:00) 11.9 (00:00) 16.6 11.11 (16:00) 7.5 (16:20) 0 0 0 0 0
14-05-2018 16.9 (17:10) 10.4 (00:00) 13.6 10 (19:50) 8.33 (19:10) 0 0 0 0 0
13-05-2018 15.8 (16:10) 9.9 (00:00) 12.8 11.67 (00:30) 10 (17:10) 9 9 0 0 0
12-05-2018 18.6 (09:20) 14.1 (00:00) 16.4 14.72 (22:10) 7.5 (12:40) 3 0 0 0 3
11-05-2018 20.9 (14:10) 15.1 (07:00) 18 14.17 (18:00) 9.17 (15:30) 0 0 0 0 0
10-05-2018 19.7 (11:40) 15.4 (00:00) 17.6 6.11 (15:10) 5 (13:00) 0 0 0 0 0
09-05-2018 21.1 (11:50) 14.5 (00:00) 17.8 7.5 (12:40) 6.11 (12:40) 0 0 0 0 0
08-05-2018 20.3 (15:50) 14.8 (00:00) 17.5 7.5 (19:40) 5 (12:30) 0.2 0 0 0.2 0
07-05-2018 20.4 (12:40) 15.5 (00:00) 17.9 8.33 (15:20) 6.39 (16:10) 0 0 0 0 0
06-05-2018 22.5 (15:20) 14.5 (00:00) 18.5 8.33 (08:30) 5.56 (17:00) 3.2 0 2.7 0.5 0
05-05-2018 21 (15:50) 15.3 (00:00) 18.2 6.94 (10:40) 4.72 (16:30) 3.4 0 0.6 1.8 1
04-05-2018 18.2 (15:30) 12.8 (00:00) 15.5 7.5 (04:20) 5.83 (16:30) 0.2 0 0 0.1 0.1
03-05-2018 22.9 (14:30) 12.3 (00:00) 17.6 13.61 (15:40) 6.39 (16:10) 0.8 0 0 0.7 0.1
02-05-2018 17.3 (19:30) 8.1 (00:00) 12.7 7.78 (19:00) 6.39 (18:40) 0 0 0 0 0
01-05-2018 15.6 (15:20) 8.5 (07:50) 12.1 10 (18:30) 7.5 (04:10) 71.3 0 69.8 0 1.5
30-04-2018 17.6 (17:10) 12.1 (00:00) 14.9 11.94 (16:30) 8.89 (16:40) 0 0 0 0 0
29-04-2018 18.3 (13:30) 13.8 (00:00) 16 18.61 (15:10) 10 (15:00) 2.5 0 2.5 0 0
28-04-2018 20.4 (13:10) 15.4 (00:00) 17.9 6.39 (02:40) 4.72 (02:20) 0.2 0.2 0 0 0
27-04-2018 22.1 (12:20) 14.3 (00:00) 18.2 11.39 (13:00) 8.33 (13:50) 0 0 0 0 0
26-04-2018 21.4 (11:10) 16.6 (00:00) 19 8.06 (20:10) 5.83 (19:20) 0 0 0 0 0
25-04-2018 22.8 (10:30) 16 (00:00) 19.4 8.06 (14:50) 6.67 (14:50) 0 0 0 0 0
24-04-2018 24.2 (11:50) 14.9 (00:00) 19.6 4.44 (08:10) 2.78 (08:10) 0 0 0 0 0

Gráficas

Temp. máximas Temp. mínimas Temp. medias Precipitaciones Rachas de viento máximas Velocidades máximas media en intervalos de 10 minutos

Datos horarios

Fecha y hora oficial Temperatura (ºC) Velocidad del viento (km/h) Dirección del viento Racha (km/h) Dirección de racha Precipitación (mm) Presión (hPa) Tendencia (hPa) Humedad (%)
2018-05-23 23:00:00 18 10 Sur 15 Sur 0 -- -- 95
2018-05-23 22:00:00 18.3 12 Sudoeste 20 Sur 0 -- -- 93
2018-05-23 21:00:00 18.9 13 Sudoeste 23 Sudoeste 0 -- -- 86
2018-05-23 20:00:00 19.4 16 Sudoeste 25 Sudoeste 0 -- -- 83
2018-05-23 19:00:00 19.1 21 Sudoeste 30 Sudoeste 0 -- -- 86
2018-05-23 18:00:00 19.5 23 Sudoeste 32 Sudoeste 0 -- -- 84
2018-05-23 17:00:00 19.9 24 Sudoeste 35 Sudoeste 0 -- -- 82
2018-05-23 16:00:00 19.6 26 Sudoeste 32 Sudoeste 0 -- -- 83
2018-05-23 15:00:00 19.5 22 Sur 30 Sur 0 -- -- 83
2018-05-23 14:00:00 19.8 21 Sudoeste 30 Sudoeste 0 -- -- 79
2018-05-23 13:00:00 19.4 23 Sudoeste 28 Sudoeste 0 -- -- 85
2018-05-23 12:00:00 19.3 20 Sudoeste 28 Sudoeste 0 -- -- 85
2018-05-23 11:00:00 19 18 Sudoeste 23 Sudoeste 0 -- -- 86
2018-05-23 10:00:00 20.8 5 Sur 11 Sudeste 0 -- -- 70
2018-05-23 09:00:00 19.2 6 Sur 9 Sudoeste 0 -- -- 74
2018-05-23 08:00:00 17.7 4 Norte 10 Noroeste 0 -- -- 75
2018-05-23 07:00:00 16 4 Norte 10 Norte 0 -- -- 82
2018-05-23 06:00:00 15.8 3 Norte 8 Norte 0 -- -- 85
2018-05-23 05:00:00 16.2 6 Norte 10 Norte 0 -- -- 85
2018-05-23 04:00:00 16.4 6 Norte 9 Norte 0 -- -- 84
2018-05-23 03:00:00 17.1 3 Nordeste 15 Oeste 0 -- -- 84
2018-05-23 02:00:00 17.9 7 Sudoeste 14 Sudoeste 0 -- -- 88
2018-05-23 01:00:00 17.8 6 Sudoeste 14 Sudoeste 0 -- -- 92
2018-05-23 00:00:00 17.7 12 Sudoeste 15 Sudoeste 0 -- -- 93
2018-05-22 23:00:00 17.8 12 Sudoeste 17 Sudoeste 0 -- -- 93
2018-05-22 22:00:00 18 15 Sudoeste 18 Sudoeste 0 -- -- 91
2018-05-22 21:00:00 18.3 13 Sur 18 Sudoeste 0 -- -- 89
2018-05-22 20:00:00 18.7 16 Sudoeste 19 Sur 0 -- -- 84
2018-05-22 19:00:00 18.8 9 Sur 19 Sudoeste 0 -- -- 81
2018-05-22 18:00:00 19.1 14 Sur 20 Sudoeste 0 -- -- 82
2018-05-22 17:00:00 19.8 17 Sur 20 Sur 0 -- -- 79
2018-05-22 16:00:00 20 15 Sur 20 Sur 0 -- -- 72
2018-05-22 15:00:00 21 12 Sur 18 Sudeste 0 -- -- 72
2018-05-22 14:00:00 20.6 10 Sur 17 Sudeste 0 -- -- 71
2018-05-22 13:00:00 20.8 11 Sudeste 16 Sudeste 0 -- -- 70
2018-05-22 12:00:00 20.5 10 Este 14 Este 0 -- -- 70
2018-05-22 11:00:00 18.3 10 Este 16 Este 0 -- -- 77
2018-05-22 10:00:00 17.5 12 Este 18 Este 0 -- -- 78
2018-05-22 09:00:00 17.5 6 Este 14 Este 0 -- -- 74
2018-05-22 08:00:00 16.9 8 Nordeste 15 Norte 0 -- -- 75
2018-05-22 07:00:00 16.8 9 Norte 14 Norte 0 -- -- 76
2018-05-22 06:00:00 17.2 0 Calma 6 Nordeste 0 -- -- 73
2018-05-22 05:00:00 17.4 4 Nordeste 9 Nordeste 0 -- -- 72
2018-05-22 04:00:00 17.5 5 Oeste 12 Sudoeste 0 -- -- 71
2018-05-22 03:00:00 17.6 3 Norte 11 Norte 0 -- -- 69
2018-05-22 02:00:00 17.9 5 Norte 12 Norte 0 -- -- 68
2018-05-22 01:00:00 17.7 2 Este 7 Sudeste 0 -- -- 81
2018-05-22 00:00:00 17.8 3 Sur 7 Sur 0 -- -- 82
2018-05-21 23:00:00 17.6 4 Este 9 Este 0 -- -- 80
2018-05-21 22:00:00 17.7 3 Sudoeste 9 Sur 0 -- -- 76
2018-05-21 21:00:00 17.8 7 Sudoeste 11 Sur 0 -- -- 75
2018-05-21 20:00:00 18.6 7 Sur 12 Sudeste 0 -- -- 76
2018-05-21 19:00:00 19.5 7 Sur 17 Sur 0 -- -- 70
2018-05-21 18:00:00 20 9 Sur 15 Sur 0 -- -- 69
2018-05-21 17:00:00 20.1 9 Sur 17 Sudeste 0 -- -- 68
2018-05-21 16:00:00 21.2 10 Sudeste 15 Sudeste 0 -- -- 63
2018-05-21 15:00:00 20.3 7 Sudeste 17 Sudeste 0 -- -- 66
2018-05-21 14:00:00 19.8 12 Sudeste 22 Sudeste 0 -- -- 71
2018-05-21 13:00:00 19.4 12 Sudeste 17 Sudeste 0 -- -- 75
2018-05-21 12:00:00 19.6 9 Sur 15 Sur 0 -- -- 76
2018-05-21 11:00:00 18.8 8 Sudeste 11 Sudeste 0 -- -- 76
2018-05-21 10:00:00 17.5 4 Este 9 Nordeste 0 -- -- 80
2018-05-21 09:00:00 16.3 6 Norte 10 Norte 0 -- -- 76
2018-05-21 08:00:00 16 5 Norte 8 Norte 0 -- -- 76
2018-05-21 07:00:00 15.7 4 Norte 8 Norte 0 -- -- 76
2018-05-21 06:00:00 15.7 4 Norte 10 Norte 0 -- -- 76
2018-05-21 05:00:00 15.7 6 Norte 9 Norte 0 -- -- 76
2018-05-21 04:00:00 15.8 6 Norte 15 Norte 0 -- -- 77
2018-05-21 03:00:00 16 10 Norte 15 Norte 0 -- -- 76
2018-05-21 02:00:00 16.5 5 Nordeste 9 Norte 0 -- -- 78
2018-05-21 01:00:00 16.5 5 Nordeste 12 Este 0 -- -- 90
2018-05-21 00:00:00 16.6 8 Este 11 Este 0 -- -- 93
2018-05-20 23:00:00 16.7 8 Este 13 Este 0 -- -- 92
2018-05-20 22:00:00 17 9 Este 14 Este 0 -- -- 90
2018-05-20 21:00:00 17.6 12 Este 17 Este 0 -- -- 84
2018-05-20 20:00:00 18.4 15 Este 19 Este 0 -- -- 75
2018-05-20 19:00:00 20.5 11 Sudeste 14 Este 0 -- -- 66
2018-05-20 18:00:00 21 6 Este 12 Este 0 -- -- 64
2018-05-20 17:00:00 21 10 Este 15 Este 0 -- -- 62
2018-05-20 16:00:00 21.7 10 Este 14 Este 0 -- -- 61
2018-05-20 15:00:00 21.9 10 Sudeste 18 Sudeste 0 -- -- 63
2018-05-20 14:00:00 20.5 16 Sudeste 25 Sudeste 0 -- -- 68
2018-05-20 13:00:00 21.2 15 Sur 22 Sudeste 0 -- -- 66
2018-05-20 12:00:00 21.2 14 Sudeste 19 Sudeste 0 -- -- 59
2018-05-20 11:00:00 21.8 11 Sur 18 Este 0 -- -- 58
2018-05-20 10:00:00 21.5 4 Norte 13 Norte 0 -- -- 56
2018-05-20 09:00:00 19.6 7 Norte 14 Norte 0 -- -- 63
2018-05-20 08:00:00 17.8 9 Norte 16 Norte 0 -- -- 69
2018-05-20 07:00:00 16.2 9 Norte 18 Noroeste 0 -- -- 77
2018-05-20 06:00:00 16.1 9 Norte 17 Norte 0 -- -- 78
2018-05-20 05:00:00 16.7 8 Norte 12 Norte 0 -- -- 77
2018-05-20 04:00:00 17.3 7 Norte 10 Norte 0 -- -- 75
2018-05-20 03:00:00 18.2 5 Norte 11 Norte 0 -- -- 69
2018-05-20 02:00:00 18.2 4 Norte 10 Nordeste 0 -- -- 70
2018-05-20 01:00:00 18.8 8 Oeste 13 Oeste 0 -- -- 69
2018-05-20 00:00:00 19.1 0 Calma 6 Sur 0 -- -- 69
2018-05-19 23:00:00 18.6 3 Sudoeste 14 Sudoeste 0 -- -- 77
2018-05-19 22:00:00 18.6 5 Sur 14 Sudoeste 0 -- -- 70
2018-05-19 21:00:00 19.7 5 Noroeste 15 Sudeste 0 -- -- 62
2018-05-19 20:00:00 20 5 Sudeste 7 Sudoeste 0 -- -- 61
2018-05-19 19:00:00 20.7 5 Este 6 Este 0 -- -- 57
2018-05-19 18:00:00 21 3 Sudeste 15 Sudeste 0 -- -- 57
2018-05-19 17:00:00 22.1 6 Sur 17 Sur 0 -- -- 56
2018-05-19 16:00:00 21 14 Sur 19 Sur 0 -- -- 61
2018-05-19 15:00:00 20.8 12 Sur 18 Sur 0 -- -- 65
2018-05-19 14:00:00 20.9 12 Sur 16 Sur 0 -- -- 64
2018-05-19 13:00:00 21.4 10 Sur 17 Sudeste 0 -- -- 65
2018-05-19 12:00:00 21.9 10 Sur 15 Sudeste 0 -- -- 64
2018-05-19 11:00:00 23.7 10 Sudeste 11 Este 0 -- -- 49
2018-05-19 10:00:00 21.7 5 Nordeste 11 Norte 0 -- -- 55
2018-05-19 09:00:00 19.8 5 Norte 12 Norte 0 -- -- 62
2018-05-19 08:00:00 17 9 Norte 13 Norte 0 -- -- 71
2018-05-19 07:00:00 15.5 6 Norte 12 Norte 0 -- -- 77
2018-05-19 06:00:00 15.5 5 Norte 10 Norte 0 -- -- 77
2018-05-19 05:00:00 15.8 4 Norte 8 Norte 0 -- -- 78
2018-05-19 04:00:00 16.3 0 Calma 6 Norte 0 -- -- 78
2018-05-19 03:00:00 16 0 Calma 6 Norte 0 -- -- 79
2018-05-19 02:00:00 16.8 4 Nordeste 7 Nordeste 0 -- -- 76
2018-05-19 01:00:00 17.1 0 Calma 6 Nordeste 0 -- -- 74
2018-05-19 00:00:00 17.8 4 Oeste 8 Oeste 0 -- -- 70
2018-05-18 23:00:00 17.4 6 Sudoeste 12 Sudoeste 0 -- -- 77
2018-05-18 22:00:00 17.5 9 Sudoeste 12 Sudoeste 0 -- -- 78
2018-05-18 21:00:00 17.5 4 Sur 14 Sudoeste 0 -- -- 81
2018-05-18 20:00:00 17.6 5 Sudoeste 10 Sudoeste 0 -- -- 76
2018-05-18 19:00:00 18.1 7 Sur 11 Sur 0 -- -- 77
2018-05-18 18:00:00 18.7 6 Sur 12 Sudeste 0 -- -- 71
2018-05-18 17:00:00 20.2 6 Sudeste 13 Sudeste 0 -- -- 66
2018-05-18 16:00:00 19.6 8 Sudeste 14 Sudeste 0 -- -- 67
2018-05-18 15:00:00 20.2 8 Sudeste 19 Sudeste 0 -- -- 66
2018-05-18 14:00:00 19.5 9 Sur 16 Sudeste 0 -- -- 70
2018-05-18 13:00:00 20.8 10 Sudeste 16 Sudeste 0 -- -- 66
2018-05-18 12:00:00 19.8 11 Sudeste 16 Sudeste 0 -- -- 69
2018-05-18 11:00:00 19.8 11 Sudeste 15 Sudeste 0 -- -- 67
2018-05-18 10:00:00 20.6 11 Sudeste 14 Este 0 -- -- 59
2018-05-18 09:00:00 19.8 3 Nordeste 13 Norte 0 -- -- 60
2018-05-18 08:00:00 17.4 9 Norte 18 Norte 0 -- -- 67
2018-05-18 07:00:00 16.7 7 Nordeste 15 Norte 0 -- -- 68
2018-05-18 06:00:00 16.9 7 Norte 14 Noroeste 0 -- -- 67
2018-05-18 05:00:00 16.8 4 Nordeste 11 Este 0 -- -- 81
2018-05-18 04:00:00 17.1 11 Este 19 Este 0 -- -- 82
2018-05-18 03:00:00 18.9 6 Norte 15 Norte 0 -- -- 55
2018-05-18 02:00:00 19.4 6 Noroeste 12 Noroeste 0 -- -- 52
2018-05-18 01:00:00 19 3 Oeste 7 Oeste 0 -- -- 54
2018-05-18 00:00:00 19.1 0 Calma 10 Oeste 0 -- -- 54
2018-05-17 23:00:00 19 5 Oeste 12 Sudoeste 0 -- -- 58
2018-05-17 22:00:00 18.9 5 Oeste 15 Oeste 0 -- -- 60
2018-05-17 21:00:00 18 12 Sudoeste 18 Sudoeste 0 -- -- 73
2018-05-17 20:00:00 17.9 8 Sur 13 Sudoeste 0 -- -- 77
2018-05-17 19:00:00 18.8 8 Sur 12 Sur 0 -- -- 70
2018-05-17 18:00:00 19.3 5 Sur 13 Sudeste 0 -- -- 66
2018-05-17 17:00:00 19.5 9 Sur 18 Sudeste 0 -- -- 63
2018-05-17 16:00:00 20 11 Sur 18 Sudeste 0 -- -- 65
2018-05-17 15:00:00 19.3 14 Sur 19 Sudoeste 0 -- -- 65
2018-05-17 14:00:00 19.6 14 Sudoeste 26 Sudoeste 0 -- -- 62
2018-05-17 13:00:00 19.4 19 Sudoeste 24 Sudoeste 0 -- -- 63
2018-05-17 12:00:00 20.2 7 Sur 15 Sur 0 -- -- 65
2018-05-17 11:00:00 20.7 2 Sur 10 Sudeste 0 -- -- 57
2018-05-17 10:00:00 20.7 8 Sudeste 13 Este 0 -- -- 60
2018-05-17 09:00:00 19.2 0 Calma 10 Oeste 0 -- -- 67
2018-05-17 08:00:00 16.9 4 Oeste 13 Oeste 0 -- -- 77
2018-05-17 07:00:00 16 8 Oeste 13 Oeste 0 -- -- 86
2018-05-17 06:00:00 15.9 3 Oeste 6 Nordeste 0 -- -- 87
2018-05-17 05:00:00 15.8 4 Norte 8 Este 0 -- -- 89
2018-05-17 04:00:00 15.9 0 Calma 6 Nordeste 0 -- -- 93
2018-05-17 03:00:00 16.1 6 Nordeste 12 Nordeste 0 -- -- 93
2018-05-17 02:00:00 15.9 7 Nordeste 14 Este 0 -- -- 88
2018-05-17 01:00:00 -- 5 Este 7 Este 0 -- -- --
2018-05-17 00:00:00 16.3 0 Calma 7 Sudoeste 0 -- -- 86
2018-05-16 23:00:00 16.3 4 Sudoeste 12 Sudoeste 0 -- -- 87
2018-05-16 22:00:00 16.5 6 Sur 10 Sudoeste 0 -- -- 87
2018-05-16 21:00:00 17.1 5 Sur 12 Sur 0 -- -- 82
2018-05-16 20:00:00 18.1 4 Sur 13 Sudeste 0 -- -- 77
2018-05-16 19:00:00 18.9 10 Sudeste 15 Sudeste 0 -- -- 70
2018-05-16 18:00:00 18.7 9 Sur 17 Sudeste 0 -- -- 70
2018-05-16 17:00:00 19.4 7 Sur 15 Sudeste 0 -- -- 64
2018-05-16 16:00:00 20.1 10 Sudeste 16 Sudeste 0 -- -- 66
2018-05-16 15:00:00 20.1 7 Sudeste 16 Sudeste 0 -- -- 67
2018-05-16 14:00:00 19.7 8 Sudeste 13 Sudeste 0 -- -- 68
2018-05-16 13:00:00 19.6 9 Sudeste 12 Sudeste 0 -- -- 69
2018-05-16 12:00:00 18.5 8 Sudeste 15 Sur 0 -- -- 70
2018-05-16 11:00:00 17.9 9 Sur 20 Sudoeste 0 -- -- 64
2018-05-16 10:00:00 18.1 8 Nordeste 17 Nordeste 0 -- -- 58
2018-05-16 09:00:00 15.5 5 Norte 14 Nordeste 0 -- -- 70
2018-05-16 08:00:00 13.9 5 Norte 14 Norte 0 -- -- 78
2018-05-16 07:00:00 13.7 6 Norte 16 Norte 0 -- -- 77
2018-05-16 06:00:00 13.6 6 Norte 13 Norte 0 -- -- 81
2018-05-16 05:00:00 13.9 7 Norte 12 Norte 0 -- -- 82
2018-05-16 04:00:00 14.2 4 Norte 11 Nordeste 0 -- -- 81
2018-05-16 03:00:00 14.8 2 Nordeste 5 Nordeste 0 -- -- 80
2018-05-16 02:00:00 15.1 0 Calma 0 Calma 0 -- -- 79
2018-05-16 01:00:00 15.4 0 Calma 5 Nordeste 0 -- -- 78
2018-05-16 00:00:00 15.8 0 Calma 5 Norte 0 -- -- 76
2018-05-15 23:00:00 16.4 3 Norte 9 Sudoeste 0 -- -- 75
2018-05-15 22:00:00 16.1 7 Sudoeste 19 Sudoeste 0 -- -- 75
2018-05-15 21:00:00 15.7 15 Sudoeste 20 Sur 0 -- -- 80
2018-05-15 20:00:00 16.1 13 Sur 24 Sudoeste 0 -- -- 76
2018-05-15 19:00:00 16.8 19 Sur 25 Sur 0 -- -- 71
2018-05-15 18:00:00 17.5 20 Sudeste 34 Este 0 -- -- 73
2018-05-15 17:00:00 17.7 23 Este 38 Este 0 -- -- 72
2018-05-15 16:00:00 18.9 9 Sudeste 40 Este 0 -- -- 61
2018-05-15 15:00:00 19.5 24 Sudoeste 36 Sudoeste 0 -- -- 53
2018-05-15 14:00:00 17.7 26 Sudoeste 34 Sudoeste 0 -- -- 61
2018-05-15 13:00:00 19.1 7 Oeste 28 Oeste 0 -- -- 46
2018-05-15 12:00:00 18.7 6 Sudoeste 22 Noroeste 0 -- -- 47
2018-05-15 11:00:00 16.9 12 Oeste 21 Oeste 0 -- -- 47
2018-05-15 10:00:00 15.1 12 Oeste 21 Oeste 0 -- -- 50
2018-05-15 09:00:00 13.9 10 Noroeste 15 Noroeste 0 -- -- 52
2018-05-15 08:00:00 12.9 5 Oeste 21 Oeste 0 -- -- 56
2018-05-15 07:00:00 12.1 15 Oeste 25 Oeste 0 -- -- 56
2018-05-15 06:00:00 12.3 11 Oeste 20 Noroeste 0 -- -- 59
2018-05-15 05:00:00 12.7 11 Noroeste 20 Oeste 0 -- -- 65
2018-05-15 04:00:00 12.8 6 Noroeste 11 Noroeste 0 -- -- 70
2018-05-15 03:00:00 12.6 6 Norte 13 Norte 0 -- -- 65
2018-05-15 02:00:00 12.8 6 Norte 9 Norte 0 -- -- 63
2018-05-15 01:00:00 13 4 Norte 12 Este 0 -- -- 64
2018-05-15 00:00:00 13.5 9 Este 20 Este 0 -- -- 66
2018-05-14 23:00:00 13.7 17 Este 25 Este 0 -- -- 60
2018-05-14 22:00:00 13.8 19 Este 29 Este 0 -- -- 58
2018-05-14 21:00:00 13.9 23 Este 33 Este 0 -- -- 60
2018-05-14 20:00:00 14.2 28 Este 36 Este 0 -- -- 59
2018-05-14 19:00:00 14.7 26 Este 34 Este 0 -- -- 57
2018-05-14 18:00:00 15.4 26 Este 30 Sudeste 0 -- -- 58
2018-05-14 17:00:00 16.6 14 Sur 24 Sudoeste 0 -- -- 56
2018-05-14 16:00:00 16.2 18 Sudoeste 23 Sudoeste 0 -- -- 52
2018-05-14 15:00:00 15.4 15 Sur 58 Sur 0 -- -- 52
2018-05-14 14:00:00 15.7 15 Sur 24 Sur 0 -- -- 50
2018-05-14 13:00:00 15.8 14 Sur 23 Sur 0 -- -- 49
2018-05-14 12:00:00 15.7 13 Sur 19 Sudeste 0 -- -- 48
2018-05-14 11:00:00 15.6 10 Sudeste 18 Sudeste 0 -- -- 47
2018-05-14 10:00:00 13.7 9 Sur 15 Sudoeste 0 -- -- 48
2018-05-14 09:00:00 13.4 4 Sudeste 21 Noroeste 0 -- -- 54
2018-05-14 08:00:00 11.6 7 Noroeste 27 Norte 0 -- -- 54
2018-05-14 07:00:00 10.6 3 Norte 17 Noroeste 0 -- -- 56
2018-05-14 06:00:00 10.6 4 Noroeste 17 Norte 0 -- -- 59
2018-05-14 05:00:00 10.6 0 Calma 12 Norte 0 -- -- 71
2018-05-14 04:00:00 11 4 Norte 12 Norte 0 -- -- 77
2018-05-14 03:00:00 11.5 5 Norte 9 Norte 0 -- -- 76
2018-05-14 02:00:00 11.9 3 Norte 12 Norte 0 -- -- 77
2018-05-14 01:00:00 12.4 5 Norte 13 Norte 0 -- -- 74
2018-05-11 20:00:00 18.3 15 Sudoeste 34 Sudoeste 0 -- -- 75
2018-05-11 19:00:00 18.4 24 Sudoeste 42 Sudoeste 0 -- -- 73
2018-05-11 18:00:00 20 21 Sudoeste 51 Sudoeste 0 -- -- 64
2018-05-11 17:00:00 20 26 Sudoeste 49 Sudoeste 0 -- -- 65
2018-05-11 16:00:00 19.6 27 Sudoeste 49 Sudoeste 0 -- -- 68
2018-05-11 15:00:00 20.3 30 Sudoeste 51 Sudoeste 0 -- -- 63
2018-05-11 14:00:00 19.9 28 Sudoeste 47 Sudoeste 0 -- -- 61
2018-05-11 13:00:00 20.8 18 Sudoeste 46 Sudoeste 0 -- -- 61
2018-05-11 12:00:00 19.6 22 Sudoeste 39 Sudoeste 0 -- -- 64
2018-05-11 11:00:00 19.4 20 Sudoeste 36 Sudoeste 0 -- -- 67
2018-05-11 10:00:00 18.4 13 Oeste 28 Oeste 0 -- -- 65
2018-05-11 09:00:00 17.2 9 Oeste 23 Oeste 0 -- -- 74
2018-05-11 08:00:00 16.3 9 Oeste 17 Oeste 0 -- -- 82
2018-05-11 07:00:00 15.2 10 Oeste 18 Oeste 0 -- -- 90
2018-05-11 06:00:00 15.3 10 Oeste 15 Oeste 0 -- -- 90
2018-05-11 05:00:00 15.7 5 Oeste 13 Oeste 0 -- -- 87
2018-05-11 04:00:00 15.8 7 Oeste 14 Oeste 0 -- -- 85
2018-05-11 03:00:00 16.3 7 Oeste 15 Oeste 0 -- -- 82
2018-05-11 02:00:00 16 8 Oeste 13 Sudoeste 0 -- -- 82
2018-05-11 01:00:00 16.2 6 Oeste 18 Sudoeste 0 -- -- 82
2018-05-11 00:00:00 16.2 11 Sudoeste 14 Sudoeste 0 -- -- 83
2018-05-10 23:00:00 16.2 8 Sudoeste 12 Sudoeste 0 -- -- 84
2018-05-10 22:00:00 16.3 9 Sudoeste 13 Sudoeste 0 -- -- 84
2018-05-10 21:00:00 16.8 7 Sur 11 Sur 0 -- -- 81
2018-05-10 20:00:00 17.2 6 Sur 13 Sur 0 -- -- 78
2018-05-10 19:00:00 17.4 8 Sur 14 Sur 0 -- -- 77
2018-05-10 18:00:00 18.3 9 Sur 18 Sudeste 0 -- -- 73
2018-05-10 17:00:00 18.8 11 Sudeste 18 Sur 0 -- -- 71
2018-05-10 16:00:00 19.3 13 Sudeste 22 Sudeste 0 -- -- 72
2018-05-10 15:00:00 18.4 14 Sudeste 22 Sudeste 0 -- -- 74
2018-05-10 14:00:00 18.8 17 Sudeste 20 Sudeste 0 -- -- 74
2018-05-10 13:00:00 18.1 18 Este 21 Este 0 -- -- 79
2018-05-10 12:00:00 19.4 8 Este 15 Sudeste 0 -- -- 69
2018-05-10 11:00:00 18.8 12 Sudeste 21 Este 0 -- -- 78
2018-05-10 10:00:00 17.3 15 Este 18 Este 0 -- -- 83
2018-05-10 09:00:00 17.5 6 Nordeste 13 Este 0 -- -- 80
2018-05-10 08:00:00 15.8 7 Nordeste 13 Nordeste 0 -- -- 91
2018-05-10 07:00:00 15.8 4 Nordeste 10 Norte 0 -- -- 89
2018-05-10 06:00:00 15.4 6 Este 11 Este 0 -- -- 93
2018-05-10 05:00:00 15.6 5 Nordeste 12 Nordeste 0 -- -- 90
2018-05-10 04:00:00 15.6 0 Calma 8 Este 0 -- -- 92
2018-05-10 03:00:00 15.7 6 Este 12 Este 0 -- -- 92
2018-05-10 02:00:00 16.3 6 Este 10 Este 0 -- -- 88
2018-05-10 01:00:00 16.6 4 Sudoeste 11 Sur 0 -- -- 82
2018-05-10 00:00:00 16.5 5 Sudoeste 12 Sudoeste 0 -- -- 82
2018-05-09 23:00:00 16 9 Sudoeste 13 Oeste 0 -- -- 89
2018-05-09 22:00:00 16.8 9 Oeste 17 Sudoeste 0 -- -- 77
2018-05-09 21:00:00 16.3 10 Sudoeste 15 Sudoeste 0 -- -- 86
2018-05-09 20:00:00 16.1 12 Sudoeste 14 Sudoeste 0 -- -- 91
2018-05-09 19:00:00 17.1 6 Sur 11 Sudeste 0 -- -- 82
2018-05-09 18:00:00 17.1 6 Sudeste 13 Este 0 -- -- 88
2018-05-09 17:00:00 16.6 10 Este 19 Este 0 -- -- 92
2018-05-09 16:00:00 17.3 9 Este 15 Este 0 -- -- 84
2018-05-09 15:00:00 19.8 8 Sudeste 17 Sudeste 0 -- -- 74
2018-05-09 14:00:00 18 13 Sudeste 27 Este 0 -- -- 80
2018-05-09 13:00:00 17.2 18 Sudoeste 27 Sudoeste 0 -- -- 84
2018-05-09 12:00:00 20.7 10 Sur 15 Sur 0 -- -- 60
2018-05-09 11:00:00 18.5 9 Sudoeste 17 Sudoeste 0 -- -- 66
2018-05-09 10:00:00 18.6 9 Noroeste 18 Norte 0 -- -- 64
2018-05-09 09:00:00 17.3 8 Norte 21 Noroeste 0 -- -- 69
2018-05-09 08:00:00 16.5 8 Noroeste 19 Noroeste 0 -- -- 73
2018-05-09 07:00:00 15.5 4 Noroeste 12 Este 0 -- -- 86
2018-05-09 06:00:00 14.8 2 Nordeste 6 Este 0 -- -- 93
2018-05-09 05:00:00 15.2 0 Calma 8 Este 0 -- -- 94
2018-05-09 04:00:00 15.4 4 Sudoeste 7 Sudoeste 0 -- -- 96
2018-05-09 03:00:00 15.5 6 Este 11 Este 0 -- -- 95
2018-05-09 02:00:00 16 0 Calma 9 Sudoeste 0 -- -- 93
2018-05-09 01:00:00 16.3 0 Calma 9 Este 0 -- -- 93
2018-05-09 00:00:00 17.2 2 Oeste 13 Oeste 0 -- -- 90
2018-05-08 23:00:00 17 9 Oeste 16 Oeste 0 -- -- 91
2018-05-08 22:00:00 17.3 6 Sudoeste 18 Oeste 0 -- -- 87
2018-05-08 21:00:00 17.6 8 Oeste 17 Sudoeste 0 -- -- 87
2018-05-08 20:00:00 16.8 12 Sudoeste 27 Sudoeste 0 -- -- 92
2018-05-08 19:00:00 18.3 8 Sudoeste 18 Sudoeste 0 -- -- 81
2018-05-08 18:00:00 16.7 13 Sudoeste 17 Sudoeste 0.2 -- -- 93
2018-05-08 17:00:00 18.5 12 Sur 21 Sudoeste 0 -- -- 82
2018-05-08 16:00:00 19 14 Sudoeste 18 Sudoeste 0 -- -- 75
2018-05-08 15:00:00 19.2 13 Sudoeste 21 Sudoeste 0 -- -- 74
2018-05-08 14:00:00 17.6 15 Sudoeste 20 Sudoeste 0 -- -- 84
2018-05-08 13:00:00 17.6 13 Sudoeste 22 Sudoeste 0 -- -- 84
2018-05-08 12:00:00 16.5 14 Sudoeste 18 Sudoeste 0 -- -- 90
2018-05-08 11:00:00 17.8 6 Sur 13 Sur 0 -- -- 84
2018-05-08 10:00:00 18.1 7 Sur 11 Sur 0 -- -- 81
2018-05-08 09:00:00 16.6 3 Sur 7 Sur 0 -- -- 93
2018-05-08 08:00:00 14.8 4 Sur 7 Sudoeste 0 -- -- 96
2018-05-08 07:00:00 15.2 4 Este 8 Este 0 -- -- 96
2018-05-08 06:00:00 15.4 3 Este 12 Este 0 -- -- 96
2018-05-08 05:00:00 15.1 3 Sudoeste 13 Sudoeste 0 -- -- 96
2018-05-08 04:00:00 15.6 5 Norte 14 Nordeste 0 -- -- 96
2018-05-08 03:00:00 15.5 9 Nordeste 16 Este 0 -- -- 95
2018-05-08 02:00:00 16.6 5 Oeste 13 Sudoeste 0 -- -- 92
2018-05-08 01:00:00 17 3 Oeste 10 Oeste 0 -- -- 89
2018-05-08 00:00:00 16.4 4 Sudoeste 13 Sudoeste 0 -- -- 92
2018-05-07 23:00:00 16.7 8 Oeste 18 Sudoeste 0 -- -- 90
2018-05-07 22:00:00 15.6 16 Sudoeste 27 Sudoeste 0 -- -- 94
2018-05-07 21:00:00 18.1 6 Sudoeste 16 Sudoeste 0 -- -- 83
2018-05-07 20:00:00 19.1 8 Oeste 17 Sudoeste 0 -- -- 76
2018-05-07 19:00:00 17.8 8 Sudoeste 26 Sudoeste 0 -- -- 82
2018-05-07 18:00:00 17.2 19 Sudoeste 23 Sudoeste 0 -- -- 84
2018-05-07 17:00:00 19.8 15 Sudoeste 29 Sur 0 -- -- 74
2018-05-07 16:00:00 17.9 21 Sudoeste 30 Sudoeste 0 -- -- 83
2018-05-07 15:00:00 18.1 21 Sudoeste 27 Sudoeste 0 -- -- 81
2018-05-07 14:00:00 19.4 12 Sudoeste 21 Sudoeste 0 -- -- 74
2018-05-07 13:00:00 18.9 13 Sudoeste 17 Sudoeste 0 -- -- 78
2018-05-07 12:00:00 18.3 12 Sudoeste 16 Sudoeste 0 -- -- 79
2018-05-07 11:00:00 18.6 7 Sur 10 Sur 0 -- -- 81
2018-05-07 10:00:00 17.5 5 Sur 10 Sudoeste 0 -- -- 86
2018-05-07 09:00:00 17 0 Calma 3 Sur 0 -- -- 86
2018-05-07 08:00:00 16.4 0 Calma 3 Sur 0 -- -- 89
2018-05-07 07:00:00 15.8 0 Calma 6 Sudoeste 0 -- -- 90
2018-05-07 06:00:00 16.8 2 Norte 8 Nordeste 0 -- -- 86
2018-05-07 05:00:00 16.1 0 Calma 8 Sudoeste 0 -- -- 87
2018-05-07 04:00:00 16.8 0 Calma 3 Sudeste 0 -- -- 81
2018-05-07 03:00:00 16.3 2 Este 9 Nordeste 0 -- -- 87
2018-05-07 02:00:00 16.8 3 Sur 6 Sudoeste 0 -- -- 80
2018-05-07 01:00:00 16.5 7 Sudoeste 9 Sudoeste 0 -- -- 81
2018-05-07 00:00:00 17.4 0 Calma 6 Oeste 0 -- -- 74
2018-05-06 23:00:00 17.4 5 Oeste 9 Oeste 0 -- -- 75
2018-05-06 22:00:00 17.6 4 Oeste 12 Oeste 0 -- -- 74
2018-05-06 21:00:00 17.8 8 Oeste 18 Oeste 0 -- -- 73
2018-05-06 20:00:00 18.2 11 Sudoeste 23 Sur 0 -- -- 74
2018-05-06 19:00:00 17.9 18 Sudoeste 23 Sudoeste 0 -- -- 78
2018-05-06 18:00:00 18.3 16 Sudoeste 24 Sudoeste 0 -- -- 79
2018-05-06 17:00:00 17.7 20 Sudoeste 25 Sudoeste 0 -- -- 83
2018-05-06 16:00:00 20.1 11 Sudoeste 15 Sudoeste 0 -- -- 70
2018-05-06 15:00:00 21.8 5 Nordeste 18 Norte 0 -- -- 60
2018-05-06 14:00:00 19.2 9 Norte 22 Noroeste 0 -- -- 75
2018-05-06 13:00:00 16.9 9 Norte 17 Noroeste 0.5 -- -- 87
2018-05-06 12:00:00 15 9 Norte 14 Norte 0.6 -- -- 93
2018-05-06 11:00:00 15.1 4 Este 10 Este 1 -- -- 91
2018-05-06 10:00:00 14.7 6 Norte 20 Nordeste 1.1 -- -- 89
2018-05-06 09:00:00 15.9 17 Este 30 Este 0 -- -- 79
2018-05-06 08:00:00 15.3 8 Noroeste 12 Norte 0 -- -- 83
2018-05-06 07:00:00 14.8 7 Noroeste 13 Norte 0 -- -- 85
2018-05-06 06:00:00 14.9 4 Norte 13 Norte 0 -- -- 85
2018-05-06 05:00:00 14.8 10 Norte 13 Noroeste 0 -- -- 85
2018-05-06 04:00:00 16.4 9 Norte 17 Norte 0 -- -- 76
2018-05-06 03:00:00 15.9 8 Noroeste 14 Norte 0 -- -- 80
2018-05-06 02:00:00 16.5 9 Norte 13 Norte 0 -- -- 79
2018-05-06 01:00:00 16.8 0 Calma 4 Noroeste 0 -- -- 81
2018-05-06 00:00:00 17.5 2 Nordeste 8 Oeste 0 -- -- 78
2018-05-05 23:00:00 17.6 8 Oeste 12 Oeste 0 -- -- 83
2018-05-05 22:00:00 17.6 10 Oeste 13 Oeste 0 -- -- 87
2018-05-05 21:00:00 17.5 3 Oeste 11 Sudoeste 0 -- -- 85
2018-05-05 20:00:00 17.9 5 Sudoeste 12 Sudoeste 1 -- -- 83
2018-05-05 19:00:00 17.8 7 Sudoeste 10 Sur 0 -- -- 78
2018-05-05 18:00:00 20 0 Calma 9 Noroeste 0 -- -- 74
2018-05-05 17:00:00 17.9 4 Noroeste 25 Este 1.7 -- -- 77
2018-05-05 16:00:00 20.5 7 Norte 17 Norte 0.1 -- -- 62
2018-05-05 15:00:00 19.5 8 Norte 19 Norte 0 -- -- 64
2018-05-05 14:00:00 18 11 Norte 25 Norte 0 -- -- 69
2018-05-05 13:00:00 16.4 8 Norte 21 Norte 0 -- -- 74
2018-05-05 12:00:00 16.8 11 Norte 24 Norte 0.3 -- -- 72
2018-05-05 11:00:00 15.4 9 Norte 25 Norte 0.2 -- -- 67
2018-05-05 10:00:00 15.8 12 Norte 25 Norte 0.1 -- -- 61
2018-05-05 09:00:00 16.2 12 Norte 21 Norte 0 -- -- 59
2018-05-05 08:00:00 15.8 10 Norte 16 Norte 0 -- -- 60
2018-05-05 07:00:00 16 5 Noroeste 24 Noroeste 0 -- -- 62
2018-05-05 06:00:00 16.4 7 Noroeste 18 Noroeste 0 -- -- 61
2018-05-05 05:00:00 16.7 6 Norte 15 Norte 0 -- -- 63
2018-05-05 04:00:00 16.8 6 Noroeste 12 Norte 0 -- -- 65
2018-05-05 03:00:00 16 0 Calma 5 Sudoeste 0 -- -- 75
2018-05-05 02:00:00 15.9 0 Calma 8 Noroeste 0 -- -- 76
2018-05-05 01:00:00 16.2 2 Nordeste 7 Oeste 0 -- -- 79
2018-05-05 00:00:00 16.4 7 Oeste 10 Noroeste 0 -- -- 77
2018-05-04 23:00:00 16.3 10 Oeste 13 Oeste 0.1 -- -- 72
2018-05-04 22:00:00 16.5 11 Oeste 13 Oeste 0 -- -- 66
2018-05-04 21:00:00 15.9 9 Sudoeste 19 Oeste 0 -- -- 65
2018-05-04 20:00:00 17.5 10 Oeste 16 Oeste 0 -- -- 58
2018-05-04 19:00:00 17.2 8 Oeste 18 Oeste 0 -- -- 59
2018-05-04 18:00:00 17.2 12 Oeste 22 Oeste 0 -- -- 56
2018-05-04 17:00:00 16.6 12 Sudoeste 26 Sudoeste 0 -- -- 61
2018-05-04 16:00:00 16 16 Sudoeste 21 Sudoeste 0 -- -- 65
2018-05-04 15:00:00 17.1 6 Oeste 12 Oeste 0 -- -- 52
2018-05-04 14:00:00 16 6 Sur 10 Sudoeste 0 -- -- 58
2018-05-04 13:00:00 15.5 7 Sur 13 Noroeste 0.1 -- -- 60
2018-05-04 12:00:00 15.8 7 Norte 21 Norte 0 -- -- 52
2018-05-04 11:00:00 14.6 8 Norte 21 Noroeste 0 -- -- 53
2018-05-04 10:00:00 14 10 Noroeste 21 Norte 0 -- -- 55
2018-05-04 09:00:00 13.6 11 Noroeste 23 Noroeste 0 -- -- 55
2018-05-04 08:00:00 12.9 13 Noroeste 26 Noroeste 0 -- -- 55
2018-05-04 07:00:00 13.3 10 Norte 24 Norte 0 -- -- 53
2018-05-04 06:00:00 13.8 8 Noroeste 25 Noroeste 0 -- -- 52
2018-05-04 05:00:00 14.6 11 Noroeste 27 Noroeste 0 -- -- 51
2018-05-04 04:00:00 15.2 13 Noroeste 24 Noroeste 0 -- -- 52
2018-05-04 03:00:00 15.9 4 Noroeste 14 Noroeste 0 -- -- 60
2018-05-04 02:00:00 15.9 3 Norte 10 Norte 0 -- -- 73
2018-05-04 01:00:00 16 4 Norte 8 Norte 0 -- -- 77
2018-05-04 00:00:00 16.1 3 Norte 5 Norte 0 -- -- 77
2018-05-03 23:00:00 16.1 3 Nordeste 5 Nordeste 0 -- -- 75
2018-05-03 22:00:00 15.6 0 Calma 4 Este 0 -- -- 75
2018-05-03 21:00:00 15.5 4 Este 11 Este 0 -- -- 83
2018-05-03 20:00:00 15.3 8 Este 18 Este 0 -- -- 87
2018-05-03 19:00:00 15.6 9 Este 18 Este 0.1 -- -- 82
2018-05-03 18:00:00 16.5 2 Noroeste 12 Sudoeste 0 -- -- 71
2018-05-03 17:00:00 16.1 9 Sur 29 Este 0.5 -- -- 73
2018-05-03 16:00:00 17.9 20 Sudeste 49 Nordeste 0.2 -- -- 58
2018-05-03 15:00:00 22.3 12 Oeste 25 Oeste 0 -- -- 40
2018-05-03 14:00:00 22.4 5 Oeste 25 Oeste 0 -- -- 43
2018-05-03 13:00:00 19.6 14 Noroeste 27 Noroeste 0 -- -- 48
2018-05-03 12:00:00 18.2 10 Oeste 28 Oeste 0 -- -- 50
2018-05-03 11:00:00 18 9 Oeste 23 Oeste 0 -- -- 50
2018-05-03 10:00:00 17.8 7 Oeste 27 Noroeste 0 -- -- 52
2018-05-03 09:00:00 16.7 14 Oeste 26 Oeste 0 -- -- 54
2018-05-03 08:00:00 15.4 0 Calma 7 Norte 0 -- -- 60
2018-05-03 07:00:00 12.7 4 Norte 13 Norte 0 -- -- 72
2018-05-03 06:00:00 12.5 8 Norte 16 Norte 0 -- -- 71
2018-05-03 05:00:00 12.6 9 Norte 15 Norte 0 -- -- 77
2018-05-03 04:00:00 12.7 8 Norte 14 Norte 0 -- -- 79
2018-05-03 03:00:00 12.8 8 Norte 19 Norte 0 -- -- 79
2018-05-03 02:00:00 13.4 11 Norte 17 Norte 0 -- -- 80
2018-05-03 01:00:00 14 8 Nordeste 18 Nordeste 0 -- -- 82
2018-05-03 00:00:00 14.4 7 Nordeste 15 Nordeste 0 -- -- 82
2018-05-02 23:00:00 14.4 12 Nordeste 22 Este 0 -- -- 83
2018-05-02 22:00:00 14.5 14 Nordeste 21 Nordeste 0 -- -- 80
2018-05-02 21:00:00 16.3 5 Oeste 19 Sudoeste 0 -- -- 64
2018-05-02 20:00:00 16.6 16 Sudoeste 26 Sudoeste 0 -- -- 65
2018-05-02 19:00:00 16 22 Sudoeste 28 Sudoeste 0 -- -- 70
2018-05-02 18:00:00 16.5 15 Sur 21 Sur 0 -- -- 60
2018-05-02 17:00:00 16.3 14 Sur 24 Sur 0 -- -- 61
2018-05-02 16:00:00 15.4 19 Sur 28 Sudoeste 0 -- -- 61
2018-05-02 15:00:00 15.2 19 Sur 24 Sur 0 -- -- 58
2018-05-02 14:00:00 14.8 17 Sur 21 Sur 0 -- -- 60
2018-05-02 13:00:00 16 12 Sur 17 Sudeste 0 -- -- 51
2018-05-02 12:00:00 16 10 Sur 22 Este 0 -- -- 48
2018-05-02 11:00:00 14.9 9 Nordeste 22 Este 0 -- -- 49
2018-05-02 10:00:00 13.7 6 Norte 23 Norte 0 -- -- 60
2018-05-02 09:00:00 12.9 5 Norte 22 Noroeste 0 -- -- 61
2018-05-02 08:00:00 11.1 3 Norte 23 Oeste 0 -- -- 67
2018-05-02 07:00:00 8.2 6 Norte 12 Norte 0 -- -- 80
2018-05-02 06:00:00 9.2 6 Norte 15 Noroeste 0 -- -- 74
2018-05-02 05:00:00 8.5 6 Nordeste 20 Este 0 -- -- 80
2018-05-02 04:00:00 10.1 5 Noroeste 13 Norte 0 -- -- 73
2018-05-02 03:00:00 10.2 6 Norte 13 Norte 0 -- -- 73
2018-05-02 02:00:00 10.2 3 Noroeste 13 Norte 0 -- -- 73
2018-05-02 01:00:00 10.5 5 Nordeste 8 Nordeste 0 -- -- 72
2018-05-02 00:00:00 10.9 4 Norte 15 Noroeste 0 -- -- 71
2018-05-01 23:00:00 11.1 5 Noroeste 9 Norte 0 -- -- 69
2018-05-01 22:00:00 10.9 4 Norte 17 Noroeste 0 -- -- 72
2018-05-01 21:00:00 11 5 Norte 19 Norte 0 -- -- 76
2018-05-01 20:00:00 11.8 7 Norte 15 Norte 0.2 -- -- 75
2018-05-01 19:00:00 10.4 10 Norte 36 Norte 1.3 -- -- 80
2018-05-01 18:00:00 12.3 16 Norte 30 Norte 0 -- -- 65
2018-05-01 17:00:00 13.9 15 Sudoeste 20 Sur 0 -- -- 51
2018-05-01 16:00:00 15 13 Sur 21 Sur 0 -- -- 51
2018-05-01 15:00:00 15 13 Sur 17 Sudoeste 0 -- -- 54
2018-05-01 14:00:00 14.1 7 Oeste 17 Oeste 0 -- -- 63
2018-05-01 13:00:00 12.6 2 Noroeste 13 Oeste 0 -- -- 65
2018-05-01 12:00:00 10.7 7 Oeste 15 Oeste 0 -- -- 81
2018-05-01 11:00:00 10 9 Oeste 15 Sudoeste 0.6 -- -- 84
2018-05-01 10:00:00 9.6 7 Oeste 18 Noroeste 3.2 -- -- 80
2018-05-01 09:00:00 9.1 8 Noroeste 17 Noroeste 7.5 -- -- 92
2018-05-01 08:00:00 8.7 5 Norte 28 Este 27.6 -- -- 90
2018-05-01 07:00:00 9.7 0 Calma 19 Noroeste 30.9 -- -- 88
2018-05-01 06:00:00 12 8 Nordeste 24 Este 0 -- -- 66
2018-05-01 05:00:00 12.2 21 Este 34 Este 0 -- -- 70
2018-05-01 04:00:00 12.6 24 Este 30 Este 0 -- -- 69
2018-05-01 03:00:00 12.1 13 Nordeste 21 Nordeste 0 -- -- 60
2018-05-01 02:00:00 13.9 3 Noroeste 13 Oeste 0 -- -- 55
2018-05-01 01:00:00 14.2 6 Oeste 15 Oeste 0 -- -- 53
2018-05-01 00:00:00 14.5 7 Oeste 20 Oeste 0 -- -- 52
2018-04-30 23:00:00 14.7 11 Oeste 22 Oeste 0 -- -- 54
2018-04-30 22:00:00 14.8 12 Oeste 31 Oeste 0 -- -- 54
2018-04-30 21:00:00 15 13 Sudoeste 31 Oeste 0 -- -- 55
2018-04-30 20:00:00 15.1 18 Sudoeste 40 Sudoeste 0 -- -- 51
2018-04-30 19:00:00 16.1 22 Sudoeste 37 Sudoeste 0 -- -- 47
2018-04-30 18:00:00 16 23 Sudoeste 39 Sudoeste 0 -- -- 47
2018-04-30 17:00:00 17.4 19 Sudoeste 43 Sudoeste 0 -- -- 39
2018-04-30 16:00:00 16.3 24 Sudoeste 43 Sudoeste 0 -- -- 47
2018-04-30 15:00:00 16 28 Sudoeste 40 Sudoeste 0 -- -- 49
2018-04-30 14:00:00 15.3 31 Sudoeste 39 Sudoeste 0 -- -- 54
2018-04-30 13:00:00 16.2 16 Sur 30 Sudoeste 0 -- -- 51
2018-04-30 12:00:00 15.7 20 Sudoeste 27 Oeste 0 -- -- 49
2018-04-30 11:00:00 15.8 7 Oeste 23 Oeste 0 -- -- 47
2018-04-30 10:00:00 14.8 10 Oeste 35 Noroeste 0 -- -- 49
2018-04-30 09:00:00 13.7 10 Noroeste 34 Noroeste 0 -- -- 51
2018-04-30 08:00:00 13.5 14 Oeste 33 Noroeste 0 -- -- 52
2018-04-30 07:00:00 12.3 13 Oeste 28 Oeste 0 -- -- 56
2018-04-30 06:00:00 12.6 12 Oeste 26 Oeste 0 -- -- 55
2018-04-30 05:00:00 12.9 8 Oeste 18 Oeste 0 -- -- 56
2018-04-30 04:00:00 13.4 5 Noroeste 12 Oeste 0 -- -- 55
2018-04-30 03:00:00 13.2 5 Oeste 12 Sudoeste 0 -- -- 55
2018-04-30 02:00:00 13.6 9 Oeste 19 Sudoeste 0 -- -- 53
2018-04-30 01:00:00 14.1 0 Calma 18 Oeste 0 -- -- 51
2018-04-30 00:00:00 14.2 9 Oeste 24 Noroeste 0 -- -- 51
2018-04-29 23:00:00 14.7 13 Noroeste 26 Noroeste 0 -- -- 50
2018-04-29 22:00:00 15.3 11 Noroeste 23 Oeste 0 -- -- 49
2018-04-29 21:00:00 15.3 8 Oeste 28 Oeste 0 -- -- 51
2018-04-29 20:00:00 15.7 10 Oeste 28 Oeste 0 -- -- 47
2018-04-29 19:00:00 15.1 18 Oeste 34 Norte 0 -- -- 51
2018-04-29 18:00:00 16.2 13 Oeste 29 Oeste 0 -- -- 48
2018-04-29 17:00:00 16.2 14 Oeste 50 Oeste 0 -- -- 51
2018-04-29 16:00:00 14.2 19 Noroeste 67 Oeste 0 -- -- 57
2018-04-29 15:00:00 17.6 36 Sudoeste 60 Sudoeste 0 -- -- 57
2018-04-29 14:00:00 17.7 16 Sur 26 Sur 0 -- -- 66
2018-04-29 13:00:00 16.6 3 Este 54 Oeste 0 -- -- 66
2018-04-29 12:00:00 16.2 33 Sudoeste 45 Sudoeste 0 -- -- 91
2018-04-29 11:00:00 15.6 33 Sudoeste 43 Sur 0 -- -- 88
2018-04-29 10:00:00 15.3 23 Sur 32 Sur 0.8 -- -- 93
2018-04-29 09:00:00 15.5 17 Sur 39 Sudoeste 1.7 -- -- 94
2018-04-29 08:00:00 16.4 13 Sudoeste 27 Sudoeste 0 -- -- 85
2018-04-29 07:00:00 15.7 22 Este 26 Este 0 -- -- 93
2018-04-29 06:00:00 15.9 16 Este 19 Este 0 -- -- 92
2018-04-29 05:00:00 16.2 12 Sudeste 16 Sudeste 0 -- -- 87
2018-04-29 04:00:00 16.3 6 Sur 13 Sudeste 0 -- -- 85
2018-04-29 03:00:00 16.4 10 Sudeste 13 Sudeste 0 -- -- 88
2018-04-29 02:00:00 16.4 8 Este 12 Sudeste 0 -- -- 88
2018-04-29 01:00:00 16.6 11 Sudeste 12 Sudeste 0 -- -- 87
2018-04-29 00:00:00 16.9 5 Sur 10 Sudoeste 0 -- -- 86
2018-04-28 23:00:00 16.9 8 Sur 11 Sur 0 -- -- 85
2018-04-28 22:00:00 16.7 9 Sur 13 Sur 0 -- -- 84
2018-04-28 21:00:00 16.7 8 Sur 13 Sur 0 -- -- 82
2018-04-28 20:00:00 17.5 10 Sur 16 Sur 0 -- -- 79
2018-04-28 19:00:00 18.1 10 Sur 18 Sur 0 -- -- 75
2018-04-28 18:00:00 18.7 12 Sur 17 Sur 0 -- -- 74
2018-04-28 17:00:00 19 13 Sur 17 Sur 0 -- -- 70
2018-04-28 16:00:00 18.8 13 Sur 20 Sur 0 -- -- 78
2018-04-28 15:00:00 18.6 15 Sur 20 Sur 0 -- -- 80
2018-04-28 14:00:00 19.3 13 Sudeste 17 Sudeste 0 -- -- 78
2018-04-28 13:00:00 20 10 Sudeste 14 Sudeste 0 -- -- 76
2018-04-28 12:00:00 19.5 9 Sudeste 17 Este 0 -- -- 78
2018-04-28 11:00:00 18.5 12 Este 15 Este 0 -- -- 79
2018-04-28 10:00:00 18.2 10 Este 12 Este 0 -- -- 84
2018-04-28 09:00:00 17.1 7 Este 11 Este 0 -- -- 85
2018-04-28 08:00:00 15.6 3 Nordeste 6 Nordeste 0 -- -- 92
2018-04-28 07:00:00 15.5 4 Este 8 Este 0 -- -- 93
2018-04-28 06:00:00 15.6 4 Este 9 Sudoeste 0 -- -- 93
2018-04-28 05:00:00 15.6 10 Sudoeste 13 Sudoeste 0 -- -- 95
2018-04-28 04:00:00 16.2 8 Sudoeste 12 Sudoeste 0 -- -- 92
2018-04-28 03:00:00 16.3 4 Sur 23 Este 0 -- -- 92
2018-04-28 02:00:00 16.5 10 Nordeste 19 Nordeste 0 -- -- 87
2018-04-28 01:00:00 16.7 4 Oeste 12 Sudoeste 0.2 -- -- 89
2018-04-28 00:00:00 16.1 4 Sur 9 Este 0 -- -- 92
2018-04-27 23:00:00 16.4 8 Este 10 Este 0 -- -- 90
2018-04-27 22:00:00 16.3 10 Este 14 Sudeste 0 -- -- 92
2018-04-27 21:00:00 16.7 14 Sudeste 15 Sudeste 0 -- -- 90
2018-04-27 20:00:00 17 7 Sudeste 15 Sudeste 0 -- -- 86
2018-04-27 19:00:00 17.9 12 Sudeste 16 Este 0 -- -- 80
2018-04-27 18:00:00 18.8 15 Sudeste 17 Sudeste 0 -- -- 78
2018-04-27 17:00:00 18.6 12 Sudeste 16 Sudeste 0 -- -- 81
2018-04-27 16:00:00 18.4 13 Sur 26 Sur 0 -- -- 81
2018-04-27 15:00:00 17 21 Sur 35 Sudoeste 0 -- -- 85
2018-04-27 14:00:00 18.3 26 Sudoeste 36 Sudoeste 0 -- -- 68
2018-04-27 13:00:00 19.7 28 Sudoeste 41 Sudoeste 0 -- -- 53
2018-04-27 12:00:00 21.3 23 Sudoeste 34 Sudoeste 0 -- -- 53
2018-04-27 11:00:00 19.9 10 Sudoeste 17 Oeste 0 -- -- 64
2018-04-27 10:00:00 18.8 10 Sudoeste 16 Oeste 0 -- -- 67
2018-04-27 09:00:00 17.3 4 Noroeste 9 Noroeste 0 -- -- 76
2018-04-27 08:00:00 15.3 5 Oeste 11 Oeste 0 -- -- 85
2018-04-27 07:00:00 14.7 5 Oeste 10 Sur 0 -- -- 89
2018-04-27 06:00:00 15.3 0 Calma 11 Sur 0 -- -- 87
2018-04-27 05:00:00 14.9 8 Sur 12 Sur 0 -- -- 91
2018-04-27 04:00:00 15.1 3 Este 7 Nordeste 0 -- -- 88
2018-04-27 03:00:00 15.5 0 Calma 13 Sudeste 0 -- -- 86
2018-04-27 02:00:00 16.2 0 Calma 5 Este 0 -- -- 83
2018-04-27 01:00:00 16.3 6 Este 12 Oeste 0 -- -- 83
2018-04-27 00:00:00 17.2 8 Oeste 17 Oeste 0 -- -- 78
2018-04-26 23:00:00 16.8 7 Oeste 21 Oeste 0 -- -- 84
2018-04-26 22:00:00 16.8 10 Oeste 27 Oeste 0 -- -- 85
2018-04-26 21:00:00 17.5 13 Oeste 29 Sudoeste 0 -- -- 81
2018-04-26 20:00:00 17.7 18 Sudoeste 28 Sudoeste 0 -- -- 81
2018-04-26 19:00:00 17.3 18 Sudoeste 23 Sudoeste 0 -- -- 84
2018-04-26 18:00:00 18.4 15 Sur 21 Sur 0 -- -- 78
2018-04-26 17:00:00 19.3 11 Sur 20 Sudeste 0 -- -- 73
2018-04-26 16:00:00 19.3 13 Sur 21 Sur 0 -- -- 77
2018-04-26 15:00:00 18.5 15 Sur 23 Sur 0 -- -- 79
2018-04-26 14:00:00 18.6 16 Sur 21 Sur 0 -- -- 77
2018-04-26 13:00:00 19 17 Sur 24 Sur 0 -- -- 81
2018-04-26 12:00:00 18.6 21 Sudoeste 25 Sudoeste 0 -- -- 83
2018-04-26 11:00:00 21.1 9 Sudeste 15 Sudeste 0 -- -- 61
2018-04-26 10:00:00 19.4 9 Sudeste 15 Sudeste 0 -- -- 65
2018-04-26 09:00:00 19 4 Norte 12 Norte 0 -- -- 63
2018-04-26 08:00:00 16.8 6 Norte 13 Nordeste 0 -- -- 69
2018-04-26 07:00:00 17.2 3 Este 21 Oeste 0 -- -- 69
2018-04-26 06:00:00 17.8 8 Oeste 12 Oeste 0 -- -- 73
2018-04-26 05:00:00 18.2 6 Oeste 13 Oeste 0 -- -- 72
2018-04-26 04:00:00 18.5 8 Oeste 15 Oeste 0 -- -- 72
2018-04-26 03:00:00 18.3 8 Oeste 12 Oeste 0 -- -- 77
2018-04-26 02:00:00 18.6 3 Norte 10 Nordeste 0 -- -- 73
2018-04-26 01:00:00 18.3 6 Norte 16 Nordeste 0 -- -- 76
2018-04-26 00:00:00 17.5 12 Nordeste 18 Nordeste 0 -- -- 83
2018-04-25 23:00:00 17.4 6 Este 12 Este 0 -- -- 88
2018-04-25 22:00:00 17.8 8 Este 12 Nordeste 0 -- -- 84
2018-04-25 21:00:00 17.9 6 Este 15 Este 0 -- -- 82
2018-04-25 20:00:00 18.3 14 Este 24 Este 0 -- -- 78
2018-04-25 19:00:00 19.1 15 Este 22 Nordeste 0 -- -- 74
2018-04-25 18:00:00 18.6 10 Este 17 Este 0 -- -- 83
2018-04-25 17:00:00 19.4 12 Este 22 Este 0 -- -- 79
2018-04-25 16:00:00 19.4 19 Este 26 Este 0 -- -- 79
2018-04-25 15:00:00 19.1 21 Este 29 Este 0 -- -- 78
2018-04-25 14:00:00 19.5 19 Este 23 Este 0 -- -- 80
2018-04-25 13:00:00 20.7 8 Sudeste 11 Sudeste 0 -- -- 75
2018-04-25 12:00:00 20.9 6 Sudeste 13 Sur 0 -- -- 66
2018-04-25 11:00:00 21.1 4 Sudeste 13 Nordeste 0 -- -- 62
2018-04-25 10:00:00 21.2 7 Norte 12 Norte 0 -- -- 57
2018-04-25 09:00:00 19.5 7 Norte 15 Norte 0 -- -- 61
2018-04-25 08:00:00 17.1 10 Norte 15 Norte 0 -- -- 70
2018-04-25 07:00:00 16.4 0 Calma 15 Sudoeste 0 -- -- 76
2018-04-25 06:00:00 16.6 0 Calma 12 Noroeste 0 -- -- 73
2018-04-25 05:00:00 16.9 5 Norte 13 Norte 0 -- -- 74
2018-04-25 04:00:00 16.8 9 Norte 12 Norte 0 -- -- 76
2018-04-25 03:00:00 17.2 2 Norte 9 Norte 0 -- -- 76
2018-04-25 02:00:00 17.5 3 Sudoeste 8 Sudoeste 0 -- -- 78
2018-04-25 01:00:00 17.5 2 Sudoeste 5 Norte 0 -- -- 78
2018-04-25 00:00:00 18.2 0 Calma 6 Nordeste 0 -- -- 73
2018-04-24 23:00:00 17.8 0 Calma 3 Norte 0 -- -- 76
2018-04-24 22:00:00 18.1 0 Calma 2 Sudeste 0 -- -- 76
2018-04-24 21:00:00 19.1 0 Calma 6 Sudeste 0 -- -- 68
2018-04-24 20:00:00 20.4 2 Este 9 Sur 0 -- -- 61
2018-04-24 19:00:00 21.7 6 Sudeste 11 Sudeste 0 -- -- 59
2018-04-24 18:00:00 22.2 6 Sudeste 12 Sudeste 0 -- -- 57
2018-04-24 17:00:00 22.2 8 Sur 14 Sudeste 0 -- -- 56
2018-04-24 16:00:00 22.1 7 Sur 13 Sur 0 -- -- 56
2018-04-24 15:00:00 22.4 9 Sur 16 Sur 0 -- -- 58
2018-04-24 14:00:00 22.3 9 Sur 14 Sur 0 -- -- 53
2018-04-24 13:00:00 23.8 8 Sur 14 Sudeste 0 -- -- 48
2018-04-24 12:00:00 23.5 6 Sur 11 Sudeste 0 -- -- 45
2018-04-24 11:00:00 22.7 3 Nordeste 12 Norte 0 -- -- 49
2018-04-24 10:00:00 20 7 Norte 13 Nordeste 0 -- -- 57
2018-04-24 09:00:00 17.8 8 Norte 16 Norte 0 -- -- 64
2018-04-24 08:00:00 16.8 10 Norte 15 Norte 0 -- -- 67
2018-04-24 07:00:00 15.9 8 Norte 15 Norte 0 -- -- 69
2018-04-24 06:00:00 15.5 8 Norte 12 Norte 0 -- -- 73
2018-04-24 05:00:00 15.7 2 Nordeste 5 Norte 0 -- -- 76
2018-04-24 04:00:00 15.5 2 Este 6 Sudoeste 0 -- -- 89
2018-04-24 03:00:00 15.6 0 Calma 5 Sudoeste 0 -- -- 87
2018-04-24 02:00:00 15.9 5 Sudoeste 8 Sur 0 -- -- 87
2018-04-24 01:00:00 15.9 4 Sur 6 Sur 0 -- -- 89
2018-04-24 00:00:00 16.7 4 Oeste 6 Norte 0 -- -- 87